createdAt,value
2023-04-13T00:00:44.894Z,8.13
2023-04-13T00:03:13.481Z,8.19
2023-04-13T00:05:41.318Z,8.25
2023-04-13T00:08:08.902Z,7.96
2023-04-13T00:10:36.643Z,8.01
2023-04-13T00:13:05.367Z,8.10
2023-04-13T00:15:38.389Z,8.18
2023-04-13T00:18:10.956Z,8.17
2023-04-13T00:20:39.335Z,8.03
2023-04-13T00:23:06.679Z,8.02
2023-04-13T00:25:34.013Z,8.06
2023-04-13T00:28:06.369Z,8.07
2023-04-13T00:30:34.178Z,7.93
2023-04-13T00:33:05.160Z,7.90
2023-04-13T00:35:32.888Z,7.89
2023-04-13T00:38:03.192Z,7.82
2023-04-13T00:40:31.162Z,7.72
2023-04-13T00:43:00.728Z,7.79
2023-04-13T00:45:28.368Z,7.93
2023-04-13T00:47:58.003Z,7.93
2023-04-13T00:50:25.958Z,7.79
2023-04-13T00:52:53.828Z,7.83
2023-04-13T00:55:22.084Z,7.81
2023-04-13T00:57:53.512Z,7.74
2023-04-13T01:00:22.109Z,7.75
2023-04-13T01:02:50.877Z,7.74
2023-04-13T01:05:19.789Z,7.90
2023-04-13T01:08:16.939Z,7.85
2023-04-13T01:10:56.919Z,7.83
2023-04-13T01:13:41.247Z,7.66
2023-04-13T01:16:30.888Z,7.71
2023-04-13T01:19:00.125Z,7.72
2023-04-13T01:21:30.554Z,7.75
2023-04-13T01:24:09.022Z,7.60
2023-04-13T01:26:53.471Z,7.58
2023-04-13T01:29:21.733Z,7.55
2023-04-13T01:31:50.295Z,7.41
2023-04-13T01:34:18.283Z,7.30
2023-04-13T01:36:46.854Z,7.34
2023-04-13T01:39:22.172Z,7.33
2023-04-13T01:41:58.421Z,7.25
2023-04-13T01:44:33.003Z,7.26
2023-04-13T01:47:16.598Z,7.16
2023-04-13T01:50:15.680Z,7.00
2023-04-13T01:52:58.010Z,6.94
2023-04-13T01:55:27.183Z,6.91
2023-04-13T01:57:59.134Z,6.92
2023-04-13T02:00:34.315Z,6.98
2023-04-13T02:03:06.985Z,7.09
2023-04-13T02:05:37.057Z,7.16
2023-04-13T02:08:06.563Z,7.12
2023-04-13T02:10:38.090Z,7.27
2023-04-13T02:13:06.121Z,7.21
2023-04-13T02:15:38.452Z,7.28
2023-04-13T02:18:06.724Z,7.37
2023-04-13T02:20:43.836Z,7.21
2023-04-13T02:23:15.136Z,7.22
2023-04-13T02:25:48.182Z,7.12
2023-04-13T02:28:18.130Z,7.06
2023-04-13T02:30:47.239Z,6.99
2023-04-13T02:33:15.042Z,6.95
2023-04-13T02:35:42.490Z,6.84
2023-04-13T02:38:11.703Z,6.78
2023-04-13T02:40:43.987Z,6.81
2023-04-13T02:43:12.452Z,6.82
2023-04-13T02:45:41.840Z,6.85
2023-04-13T02:48:13.243Z,6.93
2023-04-13T02:50:40.966Z,6.85
2023-04-13T02:53:12.608Z,6.93
2023-04-13T02:55:43.413Z,6.93
2023-04-13T02:58:13.624Z,7.10
2023-04-13T03:00:45.014Z,7.07
2023-04-13T03:03:14.467Z,7.08
2023-04-13T03:05:46.249Z,7.04
2023-04-13T03:08:18.904Z,6.95
2023-04-13T03:11:02.069Z,6.98
2023-04-13T03:13:30.032Z,6.97
2023-04-13T03:16:00.589Z,6.86
2023-04-13T03:18:28.514Z,6.87
2023-04-13T03:20:56.481Z,6.80
2023-04-13T03:23:28.379Z,6.90
2023-04-13T03:25:56.177Z,6.80
2023-04-13T03:28:24.059Z,6.92
2023-04-13T03:30:52.622Z,6.87
2023-04-13T03:33:20.482Z,6.85
2023-04-13T03:35:48.169Z,6.86
2023-04-13T03:38:26.134Z,6.75
2023-04-13T03:40:53.796Z,6.81
2023-04-13T03:43:21.586Z,6.80
2023-04-13T03:45:59.184Z,6.83
2023-04-13T03:48:27.514Z,6.73
2023-04-13T03:50:56.275Z,6.68
2023-04-13T03:53:29.123Z,6.60
2023-04-13T03:55:57.032Z,6.58
2023-04-13T03:58:24.551Z,6.49
2023-04-13T04:00:53.098Z,6.55
2023-04-13T04:03:35.242Z,6.69
2023-04-13T04:06:07.771Z,6.48
2023-04-13T04:08:37.326Z,6.41
2023-04-13T04:11:09.321Z,6.33
2023-04-13T04:13:36.876Z,6.28
2023-04-13T04:16:11.610Z,6.29
2023-04-13T04:18:44.827Z,6.34
2023-04-13T04:21:15.855Z,6.29
2023-04-13T04:23:44.652Z,6.26
2023-04-13T04:26:14.009Z,6.27
2023-04-13T04:28:47.544Z,6.30
2023-04-13T04:31:19.397Z,6.20
2023-04-13T04:33:51.941Z,6.23
2023-04-13T04:36:21.235Z,6.23
2023-04-13T04:39:02.619Z,6.17
2023-04-13T04:41:37.902Z,6.20
2023-04-13T04:44:07.941Z,6.30
2023-04-13T04:46:41.690Z,6.31
2023-04-13T04:49:13.237Z,6.44
2023-04-13T04:51:41.642Z,6.38
2023-04-13T04:54:12.324Z,6.36
2023-04-13T04:56:39.870Z,6.30
2023-04-13T04:59:08.325Z,6.21
2023-04-13T05:01:43.527Z,6.15
2023-04-13T05:04:13.582Z,6.11
2023-04-13T05:06:44.852Z,6.07
2023-04-13T05:09:18.142Z,6.01
2023-04-13T05:11:49.211Z,6.00
2023-04-13T05:14:19.107Z,6.00
2023-04-13T05:16:46.492Z,5.99
2023-04-13T05:19:21.640Z,5.92
2023-04-13T05:22:03.494Z,5.94
2023-04-13T05:24:38.042Z,6.04
2023-04-13T05:27:11.965Z,6.10
2023-04-13T05:29:40.446Z,6.13
2023-04-13T05:32:08.266Z,6.20
2023-04-13T05:34:38.284Z,6.26
2023-04-13T05:37:14.792Z,6.29
2023-04-13T05:39:45.271Z,6.35
2023-04-13T05:42:13.693Z,6.49
2023-04-13T05:44:44.501Z,6.47
2023-04-13T05:47:13.334Z,6.74
2023-04-13T05:49:43.211Z,6.88
2023-04-13T05:52:11.325Z,6.85
2023-04-13T05:54:43.752Z,6.92
2023-04-13T05:57:11.621Z,7.10
2023-04-13T05:59:44.771Z,7.43
2023-04-13T06:02:14.883Z,8.20
2023-04-13T06:04:43.471Z,8.98
2023-04-13T06:07:11.676Z,9.83
2023-04-13T06:09:41.809Z,10.76
2023-04-13T06:12:09.335Z,11.62
2023-04-13T06:14:37.002Z,12.38
2023-04-13T06:17:04.512Z,13.07
2023-04-13T06:19:32.149Z,13.63
2023-04-13T06:22:00.039Z,14.10
2023-04-13T06:24:28.623Z,14.39
2023-04-13T06:27:04.984Z,14.68
2023-04-13T06:29:33.295Z,15.03
2023-04-13T06:32:07.681Z,15.35
2023-04-13T06:34:36.993Z,15.76
2023-04-13T06:37:05.517Z,16.05
2023-04-13T06:39:42.315Z,16.48
2023-04-13T06:42:11.093Z,17.11
2023-04-13T06:44:52.975Z,17.61
2023-04-13T06:47:22.762Z,17.97
2023-04-13T06:49:50.602Z,18.20
2023-04-13T06:52:18.631Z,18.48
2023-04-13T06:54:46.067Z,19.00
2023-04-13T06:57:26.582Z,19.38
2023-04-13T06:59:54.674Z,19.70
2023-04-13T07:02:23.090Z,20.14
2023-04-13T07:04:50.966Z,19.88
2023-04-13T07:07:18.877Z,19.68
2023-04-13T07:09:46.735Z,19.66
2023-04-13T07:12:14.388Z,19.63
2023-04-13T07:14:44.759Z,19.75
2023-04-13T07:17:15.076Z,19.93
2023-04-13T07:19:48.106Z,20.32
2023-04-13T07:22:16.267Z,20.51
2023-04-13T07:24:46.757Z,20.69
2023-04-13T07:27:18.455Z,20.91
2023-04-13T07:29:46.052Z,20.92
2023-04-13T07:32:20.869Z,20.93
2023-04-13T07:34:48.746Z,21.08
2023-04-13T07:37:16.935Z,21.02
2023-04-13T07:39:45.016Z,21.18
2023-04-13T07:42:12.982Z,21.45
2023-04-13T07:44:45.838Z,21.73
2023-04-13T07:47:14.343Z,21.71
2023-04-13T07:49:44.132Z,21.84
2023-04-13T07:52:22.984Z,22.03
2023-04-13T07:54:52.437Z,21.89
2023-04-13T07:57:21.509Z,22.11
2023-04-13T07:59:55.756Z,22.27
2023-04-13T08:02:24.508Z,22.11
2023-04-13T08:04:55.322Z,22.15
2023-04-13T08:07:29.793Z,22.24
2023-04-13T08:09:57.317Z,21.95
2023-04-13T08:12:25.083Z,22.01
2023-04-13T08:15:00.631Z,21.76
2023-04-13T08:17:28.483Z,21.59
2023-04-13T08:19:55.909Z,21.37
2023-04-13T08:22:23.844Z,20.92
2023-04-13T08:24:51.256Z,20.65
2023-04-13T08:27:19.850Z,20.52
2023-04-13T08:29:47.568Z,20.48
2023-04-13T08:32:16.387Z,20.11
2023-04-13T08:34:43.849Z,20.31
2023-04-13T08:37:15.453Z,20.59
2023-04-13T08:39:44.793Z,20.98
2023-04-13T08:42:13.551Z,21.34
2023-04-13T08:44:42.983Z,21.27
2023-04-13T08:47:11.538Z,20.51
2023-04-13T08:49:40.976Z,20.59
2023-04-13T08:52:16.876Z,20.60
2023-04-13T08:54:48.748Z,20.63
2023-04-13T08:57:22.433Z,20.87
2023-04-13T08:59:55.599Z,21.18
2023-04-13T09:02:26.507Z,21.11
2023-04-13T09:05:00.806Z,20.62
2023-04-13T09:07:34.934Z,20.10
2023-04-13T09:10:09.552Z,19.46
2023-04-13T09:12:37.220Z,18.31
2023-04-13T09:15:09.270Z,17.09
2023-04-13T09:17:46.493Z,16.53
2023-04-13T09:20:24.680Z,16.29
2023-04-13T09:22:52.630Z,16.17
2023-04-13T09:25:20.928Z,16.25
2023-04-13T09:27:52.839Z,16.33
2023-04-13T09:30:29.872Z,16.33
2023-04-13T09:33:08.583Z,16.21
2023-04-13T09:35:37.292Z,16.20
2023-04-13T09:38:06.400Z,16.23
2023-04-13T09:40:38.334Z,16.25
2023-04-13T09:43:08.148Z,16.29
2023-04-13T09:45:37.585Z,16.19
2023-04-13T09:48:16.054Z,16.18
2023-04-13T09:50:44.653Z,16.19
2023-04-13T09:53:12.313Z,16.54
2023-04-13T09:55:40.323Z,16.71
2023-04-13T09:58:17.738Z,16.80
2023-04-13T10:00:46.668Z,17.03
2023-04-13T10:03:15.733Z,17.35
2023-04-13T10:05:57.743Z,17.54
2023-04-13T10:08:37.400Z,17.45
2023-04-13T10:11:11.989Z,17.30
2023-04-13T10:14:09.520Z,17.18
2023-04-13T10:16:45.284Z,17.09
2023-04-13T10:19:17.187Z,16.88
2023-04-13T10:21:48.752Z,16.67
2023-04-13T10:24:17.327Z,16.51
2023-04-13T10:26:45.335Z,16.26
2023-04-13T10:29:15.005Z,16.09
2023-04-13T10:31:49.139Z,16.01
2023-04-13T10:34:28.093Z,15.71
2023-04-13T10:36:58.478Z,15.44
2023-04-13T10:39:28.173Z,15.32
2023-04-13T10:42:01.754Z,15.09
2023-04-13T10:44:43.261Z,14.76
2023-04-13T10:47:12.407Z,14.31
2023-04-13T10:49:43.632Z,13.99
2023-04-13T10:52:11.694Z,14.18
2023-04-13T10:54:40.587Z,14.53
2023-04-13T10:57:11.296Z,14.71
2023-04-13T10:59:56.066Z,14.84
2023-04-13T11:02:26.451Z,14.92
2023-04-13T11:04:54.162Z,15.02
2023-04-13T11:07:23.516Z,14.83
2023-04-13T11:09:51.138Z,14.66
2023-04-13T11:12:19.634Z,14.02
2023-04-13T11:14:51.252Z,13.23
2023-04-13T11:17:20.030Z,12.81
2023-04-13T11:19:50.682Z,12.42
2023-04-13T11:22:22.794Z,12.24
2023-04-13T11:24:52.051Z,12.39
2023-04-13T11:27:21.653Z,12.79
2023-04-13T11:30:06.558Z,13.60
2023-04-13T11:32:34.592Z,14.22
2023-04-13T11:35:06.398Z,14.72
2023-04-13T11:37:41.968Z,15.10
2023-04-13T11:40:14.077Z,15.27
2023-04-13T11:42:44.169Z,15.24
2023-04-13T11:45:14.745Z,15.03
2023-04-13T11:47:43.238Z,14.64
2023-04-13T11:50:11.576Z,14.41
2023-04-13T11:52:40.454Z,13.97
2023-04-13T11:55:21.673Z,13.84
2023-04-13T11:57:52.940Z,13.95
2023-04-13T12:00:26.306Z,14.16
2023-04-13T12:05:32.521Z,14.86
2023-04-13T12:08:02.935Z,14.97
2023-04-13T12:10:42.042Z,14.93
2023-04-13T12:13:35.394Z,14.79
2023-04-13T12:16:10.753Z,14.62
2023-04-13T12:18:46.849Z,14.48
2023-04-13T12:21:20.479Z,14.11
2023-04-13T12:23:58.724Z,13.86
2023-04-13T12:29:08.113Z,14.02
2023-04-13T12:31:37.575Z,14.15
2023-04-13T12:34:06.710Z,14.37
2023-04-13T12:36:36.503Z,14.53
2023-04-13T12:39:04.890Z,14.68
2023-04-13T12:41:34.111Z,14.88
2023-04-13T12:44:01.659Z,15.14
2023-04-13T12:46:29.322Z,15.31
2023-04-13T12:48:56.982Z,15.40
2023-04-13T12:51:24.706Z,15.38
2023-04-13T12:53:52.265Z,15.22
2023-04-13T12:56:19.689Z,14.97
2023-04-13T12:58:47.163Z,14.79
2023-04-13T13:01:15.442Z,14.33
2023-04-13T13:03:44.171Z,13.63
2023-04-13T13:06:11.624Z,12.70
2023-04-13T13:08:40.368Z,12.25
2023-04-13T13:11:11.257Z,11.60
2023-04-13T13:13:38.731Z,10.91
2023-04-13T13:16:06.790Z,10.78
2023-04-13T13:19:00.719Z,10.55
2023-04-13T13:21:23.282Z,10.28
2023-04-13T13:23:50.695Z,10.30
2023-04-13T13:28:48.738Z,10.12
2023-04-13T13:31:16.276Z,10.25
2023-04-13T13:33:43.799Z,10.25
2023-04-13T13:36:12.695Z,10.38
2023-04-13T13:38:40.736Z,10.76
2023-04-13T13:41:08.336Z,11.24
2023-04-13T13:43:36.070Z,11.63
2023-04-13T13:46:05.642Z,11.93
2023-04-13T13:48:34.813Z,12.29
2023-04-13T13:51:31.810Z,12.78
2023-04-13T13:54:01.072Z,13.18
2023-04-13T13:56:28.504Z,13.46
2023-04-13T13:58:56.014Z,13.65
2023-04-13T14:01:23.528Z,13.78
2023-04-13T14:03:51.315Z,13.87
2023-04-13T14:06:19.014Z,13.86
2023-04-13T14:08:46.780Z,13.86
2023-04-13T14:11:14.658Z,13.80
2023-04-13T14:13:42.212Z,13.81
2023-04-13T14:16:09.826Z,13.84
2023-04-13T14:18:37.769Z,13.82
2023-04-13T14:21:05.554Z,13.68
2023-04-13T14:23:33.309Z,13.70
2023-04-13T14:26:00.745Z,13.75
2023-04-13T14:28:28.204Z,13.79
2023-04-13T14:30:55.637Z,13.94
2023-04-13T14:33:23.193Z,14.02
2023-04-13T14:35:50.636Z,14.03
2023-04-13T14:38:18.266Z,14.10
2023-04-13T14:40:45.679Z,14.10
2023-04-13T14:43:13.177Z,13.96
2023-04-13T14:45:40.605Z,13.85
2023-04-13T14:48:08.341Z,13.85
2023-04-13T14:50:39.212Z,13.79
2023-04-13T14:53:07.898Z,13.85
2023-04-13T14:55:35.367Z,14.00
2023-04-13T14:58:03.867Z,14.19
2023-04-13T15:00:41.145Z,14.47
2023-04-13T15:03:10.665Z,14.61
2023-04-13T15:05:39.327Z,14.75
2023-04-13T15:08:07.765Z,14.78
2023-04-13T15:10:35.529Z,14.75
2023-04-13T15:13:04.254Z,14.72
2023-04-13T15:15:34.067Z,14.62
2023-04-13T15:18:03.007Z,14.66
2023-04-13T15:20:31.379Z,14.76
2023-04-13T15:22:59.274Z,14.80
2023-04-13T15:25:27.090Z,14.72
2023-04-13T15:27:56.020Z,14.72
2023-04-13T15:30:35.485Z,14.71
2023-04-13T15:33:03.726Z,14.51
2023-04-13T15:35:33.908Z,14.29
2023-04-13T15:38:04.420Z,14.10
2023-04-13T15:40:33.929Z,13.94
2023-04-13T15:43:02.420Z,13.90
2023-04-13T15:45:30.128Z,13.64
2023-04-13T15:47:57.814Z,13.38
2023-04-13T15:50:25.423Z,13.22
2023-04-13T15:52:53.014Z,12.97
2023-04-13T15:55:21.163Z,12.99
2023-04-13T15:57:50.272Z,13.09
2023-04-13T16:00:18.513Z,13.45
2023-04-13T16:02:46.088Z,13.47
2023-04-13T16:05:13.889Z,13.56
2023-04-13T16:07:41.761Z,13.61
2023-04-13T16:10:15.646Z,13.66
2023-04-13T16:12:46.264Z,13.74
2023-04-13T16:15:13.896Z,13.67
2023-04-13T16:17:43.628Z,13.61
2023-04-13T16:20:14.558Z,13.55
2023-04-13T16:22:43.065Z,13.48
2023-04-13T16:25:11.534Z,13.52
2023-04-13T16:27:40.139Z,13.44
2023-04-13T16:30:08.777Z,13.37
2023-04-13T16:32:36.444Z,13.23
2023-04-13T16:35:04.299Z,13.00
2023-04-13T16:37:31.894Z,12.85
2023-04-13T16:39:59.478Z,12.70
2023-04-13T16:42:26.905Z,12.72
2023-04-13T16:44:54.464Z,12.69
2023-04-13T16:47:21.887Z,12.58
2023-04-13T16:49:49.358Z,12.72
2023-04-13T16:52:16.733Z,13.06
2023-04-13T16:54:44.488Z,13.36
2023-04-13T16:57:12.584Z,13.58
2023-04-13T16:59:40.065Z,13.70
2023-04-13T17:02:13.145Z,13.82
2023-04-13T17:04:45.673Z,13.97
2023-04-13T17:07:13.257Z,13.99
2023-04-13T17:09:40.845Z,14.01
2023-04-13T17:12:08.287Z,13.97
2023-04-13T17:14:35.867Z,13.83
2023-04-13T17:17:03.359Z,13.68
2023-04-13T17:19:30.905Z,13.61
2023-04-13T17:21:58.397Z,13.49
2023-04-13T17:24:26.052Z,13.39
2023-04-13T17:26:53.496Z,13.25
2023-04-13T17:29:22.010Z,13.14
2023-04-13T17:31:50.056Z,13.15
2023-04-13T17:34:17.733Z,13.14
2023-04-13T17:36:45.755Z,12.96
2023-04-13T17:39:13.360Z,12.82
2023-04-13T17:41:41.798Z,12.70
2023-04-13T17:44:12.483Z,12.57
2023-04-13T17:46:43.275Z,12.60
2023-04-13T17:49:13.113Z,12.79
2023-04-13T17:51:41.013Z,12.38
2023-04-13T17:54:09.447Z,12.04
2023-04-13T17:56:36.925Z,11.67
2023-04-13T17:59:04.497Z,11.55
2023-04-13T18:01:32.373Z,11.43
2023-04-13T18:04:00.526Z,11.31
2023-04-13T18:06:28.065Z,11.45
2023-04-13T18:08:55.746Z,11.40
2023-04-13T18:11:23.148Z,11.21
2023-04-13T18:13:50.780Z,11.14
2023-04-13T18:16:18.556Z,10.98
2023-04-13T18:18:46.845Z,10.92
2023-04-13T18:21:20.961Z,10.91
2023-04-13T18:23:51.236Z,10.87
2023-04-13T18:26:22.933Z,10.84
2023-04-13T18:28:59.630Z,10.77
2023-04-13T18:31:27.301Z,10.73
2023-04-13T18:33:54.765Z,10.66
2023-04-13T18:36:24.659Z,10.59
2023-04-13T18:38:52.276Z,10.48
2023-04-13T18:41:19.940Z,10.35
2023-04-13T18:43:47.417Z,10.27
2023-04-13T18:46:14.969Z,10.22
2023-04-13T18:48:42.510Z,10.18
2023-04-13T18:51:10.656Z,10.14
2023-04-13T18:53:38.957Z,10.06
2023-04-13T18:56:06.601Z,10.03
2023-04-13T18:58:34.035Z,10.06
2023-04-13T19:01:01.553Z,10.03
2023-04-13T19:03:29.343Z,9.87
2023-04-13T19:05:57.097Z,9.79
2023-04-13T19:08:24.669Z,9.79
2023-04-13T19:10:52.152Z,9.71
2023-04-13T19:13:19.644Z,9.79
2023-04-13T19:15:47.225Z,9.80
2023-04-13T19:18:14.775Z,9.90
2023-04-13T19:20:42.287Z,9.78
2023-04-13T19:23:09.745Z,9.78
2023-04-13T19:25:37.189Z,9.74
2023-04-13T19:28:04.896Z,9.72
2023-04-13T19:30:32.398Z,9.64
2023-04-13T19:33:00.216Z,9.60
2023-04-13T19:35:29.395Z,9.49
2023-04-13T19:37:56.920Z,9.47
2023-04-13T19:40:26.333Z,9.38
2023-04-13T19:42:54.036Z,9.33
2023-04-13T19:45:21.690Z,9.38
2023-04-13T19:47:49.400Z,9.33
2023-04-13T19:50:16.901Z,9.40
2023-04-13T19:52:47.201Z,9.38
2023-04-13T19:55:15.587Z,9.37
2023-04-13T19:57:43.094Z,9.31
2023-04-13T20:00:20.597Z,9.24
2023-04-13T20:02:49.970Z,9.16
2023-04-13T20:05:19.518Z,9.16
2023-04-13T20:07:47.180Z,9.17
2023-04-13T20:10:14.611Z,9.20
2023-04-13T20:12:42.170Z,9.21
2023-04-13T20:15:09.831Z,9.24
2023-04-13T20:17:37.314Z,9.20
2023-04-13T20:20:06.727Z,9.12
2023-04-13T20:22:34.254Z,9.14
2023-04-13T20:25:01.746Z,9.13
2023-04-13T20:27:30.401Z,9.16
2023-04-13T20:29:58.017Z,9.24
2023-04-13T20:32:25.749Z,9.33
2023-04-13T20:34:55.519Z,9.34
2023-04-13T20:37:23.082Z,9.31
2023-04-13T20:39:50.567Z,9.42
2023-04-13T20:42:22.580Z,9.45
2023-04-13T20:44:57.863Z,9.46
2023-04-13T20:47:28.557Z,9.39
2023-04-13T20:49:57.722Z,9.36
2023-04-13T20:52:26.021Z,9.37
2023-04-13T20:54:54.742Z,9.40
2023-04-13T20:57:23.180Z,9.43
2023-04-13T20:59:52.168Z,9.51
2023-04-13T21:02:20.550Z,9.50
2023-04-13T21:04:48.214Z,9.65
2023-04-13T21:07:16.441Z,9.52
2023-04-13T21:09:44.572Z,9.56
2023-04-13T21:12:12.029Z,9.55
2023-04-13T21:14:39.574Z,9.38
2023-04-13T21:17:06.975Z,9.46
2023-04-13T21:19:36.210Z,9.41
2023-04-13T21:22:04.905Z,9.38
2023-04-13T21:24:32.189Z,9.24
2023-04-13T21:26:59.593Z,9.09
2023-04-13T21:29:26.882Z,8.96
2023-04-13T21:31:54.386Z,8.97
2023-04-13T21:34:22.672Z,8.86
2023-04-13T21:36:52.153Z,8.73
2023-04-13T21:39:20.470Z,8.65
2023-04-13T21:41:47.909Z,8.66
2023-04-13T21:44:28.642Z,8.60
2023-04-13T21:46:58.749Z,8.55
2023-04-13T21:49:26.692Z,8.52
2023-04-13T21:51:54.181Z,8.50
2023-04-13T21:54:26.782Z,8.55
2023-04-13T21:56:54.198Z,8.52
2023-04-13T21:59:21.592Z,8.47
2023-04-13T22:01:49.277Z,8.47
2023-04-13T22:04:16.826Z,8.57
2023-04-13T22:06:44.456Z,8.54
2023-04-13T22:09:12.425Z,8.46
2023-04-13T22:11:40.499Z,8.51
2023-04-13T22:14:08.019Z,8.51
2023-04-13T22:16:35.704Z,8.47
2023-04-13T22:19:07.655Z,8.42
2023-04-13T22:21:38.035Z,8.43
2023-04-13T22:24:05.985Z,8.33
2023-04-13T22:26:33.497Z,8.31
2023-04-13T22:29:01.128Z,8.27
2023-04-13T22:31:28.934Z,8.32
2023-04-13T22:33:56.525Z,8.31
2023-04-13T22:36:24.120Z,8.41
2023-04-13T22:38:52.130Z,8.24
2023-04-13T22:41:19.882Z,8.32
2023-04-13T22:43:47.385Z,8.43
2023-04-13T22:46:14.964Z,8.33
2023-04-13T22:48:42.392Z,8.29
2023-04-13T22:51:09.855Z,8.38
2023-04-13T22:53:37.278Z,8.27
2023-04-13T22:56:05.656Z,8.14
2023-04-13T22:58:33.028Z,8.12
2023-04-13T23:01:00.875Z,8.11
2023-04-13T23:03:28.331Z,8.09
2023-04-13T23:05:56.155Z,7.99
2023-04-13T23:08:23.657Z,7.98
2023-04-13T23:10:51.301Z,7.97
2023-04-13T23:13:18.759Z,7.91
2023-04-13T23:15:47.678Z,7.94
2023-04-13T23:18:15.450Z,8.01
2023-04-13T23:20:43.004Z,8.03
2023-04-13T23:23:10.385Z,8.08
2023-04-13T23:25:37.679Z,8.03
2023-04-13T23:28:04.947Z,8.10
2023-04-13T23:30:32.307Z,8.03
2023-04-13T23:32:59.676Z,7.99
2023-04-13T23:35:27.140Z,8.10
2023-04-13T23:37:54.476Z,8.11
2023-04-13T23:40:22.012Z,8.07
2023-04-13T23:42:49.463Z,8.14
2023-04-13T23:45:17.276Z,8.24
2023-04-13T23:47:44.849Z,8.14
2023-04-13T23:50:12.403Z,8.24
2023-04-13T23:52:39.759Z,8.20
2023-04-13T23:55:07.825Z,8.15
2023-04-13T23:57:35.381Z,8.10
